sensor_id;sensor_type;location;lat;lon;timestamp;temperature;humidity
41168;DHT22;26906;45.658;9.272;2023-03-23T06:35:57;12.60;99.90
41168;DHT22;26906;45.658;9.272;2023-03-23T06:38:51;13.00;99.90
41168;DHT22;26906;45.658;9.272;2023-03-23T06:41:32;13.00;99.90
41168;DHT22;26906;45.658;9.272;2023-03-23T06:43:58;13.10;99.90
41168;DHT22;26906;45.658;9.272;2023-03-23T06:46:28;13.30;99.90
41168;DHT22;26906;45.658;9.272;2023-03-23T06:48:54;13.30;99.90
41168;DHT22;26906;45.658;9.272;2023-03-23T06:51:28;13.40;99.90
41168;DHT22;26906;45.658;9.272;2023-03-23T06:53:55;13.40;99.90
41168;DHT22;26906;45.658;9.272;2023-03-23T06:56:23;13.40;99.90
41168;DHT22;26906;45.658;9.272;2023-03-23T06:58:49;13.50;99.90
41168;DHT22;26906;45.658;9.272;2023-03-23T07:01:18;13.50;99.90
41168;DHT22;26906;45.658;9.272;2023-03-23T07:03:53;13.60;99.90
41168;DHT22;26906;45.658;9.272;2023-03-23T07:06:28;13.60;99.90
41168;DHT22;26906;45.658;9.272;2023-03-23T07:08:58;13.70;99.90
41168;DHT22;26906;45.658;9.272;2023-03-23T07:11:27;13.80;99.90
41168;DHT22;26906;45.658;9.272;2023-03-23T07:13:53;13.80;99.90
41168;DHT22;26906;45.658;9.272;2023-03-23T07:16:19;13.90;99.90
41168;DHT22;26906;45.658;9.272;2023-03-23T07:18:46;13.90;99.90
41168;DHT22;26906;45.658;9.272;2023-03-23T07:21:11;14.00;99.90
41168;DHT22;26906;45.658;9.272;2023-03-23T07:23:39;14.10;99.90
41168;DHT22;26906;45.658;9.272;2023-03-23T07:26:09;14.20;99.90
41168;DHT22;26906;45.658;9.272;2023-03-23T07:28:47;14.30;99.90
41168;DHT22;26906;45.658;9.272;2023-03-23T07:31:20;14.40;99.90
41168;DHT22;26906;45.658;9.272;2023-03-23T07:33:47;14.50;99.90
41168;DHT22;26906;45.658;9.272;2023-03-23T07:36:13;14.60;99.90
41168;DHT22;26906;45.658;9.272;2023-03-23T07:38:40;14.70;99.90
41168;DHT22;26906;45.658;9.272;2023-03-23T07:41:06;14.80;99.90
41168;DHT22;26906;45.658;9.272;2023-03-23T07:43:35;14.90;99.90
41168;DHT22;26906;45.658;9.272;2023-03-23T07:46:31;15.10;99.90
41168;DHT22;26906;45.658;9.272;2023-03-23T07:49:23;15.30;99.90
41168;DHT22;26906;45.658;9.272;2023-03-23T07:52:00;15.40;99.90
41168;DHT22;26906;45.658;9.272;2023-03-23T07:54:27;15.50;99.90
41168;DHT22;26906;45.658;9.272;2023-03-23T07:56:58;15.60;99.90
41168;DHT22;26906;45.658;9.272;2023-03-23T07:59:27;15.60;99.90
41168;DHT22;26906;45.658;9.272;2023-03-23T08:01:55;15.70;99.90
41168;DHT22;26906;45.658;9.272;2023-03-23T08:04:39;15.90;99.90
41168;DHT22;26906;45.658;9.272;2023-03-23T08:07:28;16.10;99.90
41168;DHT22;26906;45.658;9.272;2023-03-23T08:10:23;16.20;99.90
41168;DHT22;26906;45.658;9.272;2023-03-23T08:13:21;16.30;99.90
41168;DHT22;26906;45.658;9.272;2023-03-23T08:16:00;16.50;99.90
41168;DHT22;26906;45.658;9.272;2023-03-23T08:18:56;16.70;99.90
41168;DHT22;26906;45.658;9.272;2023-03-23T08:21:49;17.00;99.90
41168;DHT22;26906;45.658;9.272;2023-03-23T08:24:44;17.10;99.90
41168;DHT22;26906;45.658;9.272;2023-03-23T08:27:23;17.20;99.90
41168;DHT22;26906;45.658;9.272;2023-03-23T08:30:07;17.20;99.90
41168;DHT22;26906;45.658;9.272;2023-03-23T08:33:11;17.20;99.90
41168;DHT22;26906;45.658;9.272;2023-03-23T08:35:57;17.10;99.90
41168;DHT22;26906;45.658;9.272;2023-03-23T08:38:42;16.90;99.90
41168;DHT22;26906;45.658;9.272;2023-03-23T08:41:28;16.80;99.90
41168;DHT22;26906;45.658;9.272;2023-03-23T08:44:05;16.70;99.90
41168;DHT22;26906;45.658;9.272;2023-03-23T08:46:47;16.80;99.90
41168;DHT22;26906;45.658;9.272;2023-03-23T08:49:26;16.80;99.90
41168;DHT22;26906;45.658;9.272;2023-03-23T08:52:25;17.10;99.90
41168;DHT22;26906;45.658;9.272;2023-03-23T08:55:03;17.30;99.90
41168;DHT22;26906;45.658;9.272;2023-03-23T08:57:51;17.80;99.90
41168;DHT22;26906;45.658;9.272;2023-03-23T09:00:37;18.00;99.90
41168;DHT22;26906;45.658;9.272;2023-03-23T09:03:23;18.20;99.90
41168;DHT22;26906;45.658;9.272;2023-03-23T09:06:27;18.50;99.90
41168;DHT22;26906;45.658;9.272;2023-03-23T09:08:53;18.70;99.90
41168;DHT22;26906;45.658;9.272;2023-03-23T09:11:21;19.00;99.90
41168;DHT22;26906;45.658;9.272;2023-03-23T09:13:47;19.10;99.90
41168;DHT22;26906;45.658;9.272;2023-03-23T09:16:12;19.10;99.90
41168;DHT22;26906;45.658;9.272;2023-03-23T09:18:38;19.10;99.90
41168;DHT22;26906;45.658;9.272;2023-03-23T09:21:04;19.40;99.90
41168;DHT22;26906;45.658;9.272;2023-03-23T09:23:30;19.60;99.90
41168;DHT22;26906;45.658;9.272;2023-03-23T09:25:56;19.70;99.90
41168;DHT22;26906;45.658;9.272;2023-03-23T09:28:22;19.80;99.90
41168;DHT22;26906;45.658;9.272;2023-03-23T09:30:48;19.90;99.90
41168;DHT22;26906;45.658;9.272;2023-03-23T09:33:14;20.00;99.90
41168;DHT22;26906;45.658;9.272;2023-03-23T09:35:41;20.20;99.90
41168;DHT22;26906;45.658;9.272;2023-03-23T09:38:09;20.40;99.90
41168;DHT22;26906;45.658;9.272;2023-03-23T09:48:53;20.40;99.90
41168;DHT22;26906;45.658;9.272;2023-03-23T09:54:17;20.50;99.90
41168;DHT22;26906;45.658;9.272;2023-03-23T09:56:45;20.50;99.90
41168;DHT22;26906;45.658;9.272;2023-03-23T10:02:14;20.60;99.90
41168;DHT22;26906;45.658;9.272;2023-03-23T10:04:49;20.30;99.90
41168;DHT22;26906;45.658;9.272;2023-03-23T10:07:20;20.30;99.90
41168;DHT22;26906;45.658;9.272;2023-03-23T10:09:52;20.40;99.90
41168;DHT22;26906;45.658;9.272;2023-03-23T10:12:44;20.70;99.90
41168;DHT22;26906;45.658;9.272;2023-03-23T10:15:21;20.50;99.90
41168;DHT22;26906;45.658;9.272;2023-03-23T10:18:17;20.70;99.90
41168;DHT22;26906;45.658;9.272;2023-03-23T10:20:55;20.90;99.90
41168;DHT22;26906;45.658;9.272;2023-03-23T10:23:54;21.20;99.90
41168;DHT22;26906;45.658;9.272;2023-03-23T10:31:56;21.60;99.90
41168;DHT22;26906;45.658;9.272;2023-03-23T10:34:45;21.70;99.90
41168;DHT22;26906;45.658;9.272;2023-03-23T10:39:56;21.70;99.90
41168;DHT22;26906;45.658;9.272;2023-03-23T10:42:25;21.60;99.90
41168;DHT22;26906;45.658;9.272;2023-03-23T10:44:52;21.80;99.90
41168;DHT22;26906;45.658;9.272;2023-03-23T10:47:18;22.00;99.90
41168;DHT22;26906;45.658;9.272;2023-03-23T10:49:50;22.30;99.90
41168;DHT22;26906;45.658;9.272;2023-03-23T10:52:35;22.20;99.90
41168;DHT22;26906;45.658;9.272;2023-03-23T10:55:13;22.10;99.90
41168;DHT22;26906;45.658;9.272;2023-03-23T10:57:43;22.10;99.90
41168;DHT22;26906;45.658;9.272;2023-03-23T11:00:23;22.30;99.90
41168;DHT22;26906;45.658;9.272;2023-03-23T11:03:04;22.60;99.90
41168;DHT22;26906;45.658;9.272;2023-03-23T11:05:47;22.90;99.90
41168;DHT22;26906;45.658;9.272;2023-03-23T11:08:20;22.80;99.90
41168;DHT22;26906;45.658;9.272;2023-03-23T11:10:57;22.80;99.90
41168;DHT22;26906;45.658;9.272;2023-03-23T11:13:31;23.00;99.90
41168;DHT22;26906;45.658;9.272;2023-03-23T11:15:57;23.00;99.90
41168;DHT22;26906;45.658;9.272;2023-03-23T11:18:42;22.90;99.90
41168;DHT22;26906;45.658;9.272;2023-03-23T11:21:12;23.10;99.90
41168;DHT22;26906;45.658;9.272;2023-03-23T11:23:40;23.50;99.90
41168;DHT22;26906;45.658;9.272;2023-03-23T11:31:22;23.90;99.90
41168;DHT22;26906;45.658;9.272;2023-03-23T11:34:00;23.90;99.90
41168;DHT22;26906;45.658;9.272;2023-03-23T11:36:36;23.50;99.90
41168;DHT22;26906;45.658;9.272;2023-03-23T11:39:18;23.50;99.90
41168;DHT22;26906;45.658;9.272;2023-03-23T11:41:44;23.10;99.90
41168;DHT22;26906;45.658;9.272;2023-03-23T11:44:11;22.90;99.90
41168;DHT22;26906;45.658;9.272;2023-03-23T11:47:37;22.60;99.90
41168;DHT22;26906;45.658;9.272;2023-03-23T11:49:49;22.50;99.90
41168;DHT22;26906;45.658;9.272;2023-03-23T11:55:27;22.90;99.90
41168;DHT22;26906;45.658;9.272;2023-03-23T11:57:55;23.30;99.90
41168;DHT22;26906;45.658;9.272;2023-03-23T12:00:25;23.50;99.90
41168;DHT22;26906;45.658;9.272;2023-03-23T12:03:11;23.70;99.90
41168;DHT22;26906;45.658;9.272;2023-03-23T12:06:09;24.00;99.90
41168;DHT22;26906;45.658;9.272;2023-03-23T12:12:09;23.80;99.90
41168;DHT22;26906;45.658;9.272;2023-03-23T12:23:07;24.10;99.90
41168;DHT22;26906;45.658;9.272;2023-03-23T12:26:46;24.20;99.90
41168;DHT22;26906;45.658;9.272;2023-03-23T12:29:03;24.40;99.90
41168;DHT22;26906;45.658;9.272;2023-03-23T12:39:48;24.10;99.90
41168;DHT22;26906;45.658;9.272;2023-03-23T12:47:42;24.00;99.90
41168;DHT22;26906;45.658;9.272;2023-03-23T12:50:30;24.20;99.90
41168;DHT22;26906;45.658;9.272;2023-03-23T12:53:08;24.20;99.90
41168;DHT22;26906;45.658;9.272;2023-03-23T12:58:27;24.20;99.90
41168;DHT22;26906;45.658;9.272;2023-03-23T13:03:39;24.20;99.90
41168;DHT22;26906;45.658;9.272;2023-03-23T13:08:49;24.20;99.90
41168;DHT22;26906;45.658;9.272;2023-03-23T13:11:22;24.40;99.90
41168;DHT22;26906;45.658;9.272;2023-03-23T13:13:56;24.40;99.90
41168;DHT22;26906;45.658;9.272;2023-03-23T13:23:16;24.50;99.90
41168;DHT22;26906;45.658;9.272;2023-03-23T13:26:09;24.50;99.90
41168;DHT22;26906;45.658;9.272;2023-03-23T13:31:36;24.60;99.90
41168;DHT22;26906;45.658;9.272;2023-03-23T13:34:05;24.60;99.90
41168;DHT22;26906;45.658;9.272;2023-03-23T13:36:43;24.60;99.90
41168;DHT22;26906;45.658;9.272;2023-03-23T13:39:20;24.50;99.90
41168;DHT22;26906;45.658;9.272;2023-03-23T13:42:00;24.60;99.90
41168;DHT22;26906;45.658;9.272;2023-03-23T13:49:59;24.70;99.90
41168;DHT22;26906;45.658;9.272;2023-03-23T13:55:29;24.50;99.90
41168;DHT22;26906;45.658;9.272;2023-03-23T14:03:18;24.70;99.90
41168;DHT22;26906;45.658;9.272;2023-03-23T14:05:51;24.80;99.90
41168;DHT22;26906;45.658;9.272;2023-03-23T14:13:47;24.90;99.90
41168;DHT22;26906;45.658;9.272;2023-03-23T14:19:13;24.70;99.90
41168;DHT22;26906;45.658;9.272;2023-03-23T14:21:52;24.70;99.90
41168;DHT22;26906;45.658;9.272;2023-03-23T14:24:26;24.70;99.90
41168;DHT22;26906;45.658;9.272;2023-03-23T14:27:02;24.50;99.90
41168;DHT22;26906;45.658;9.272;2023-03-23T14:29:33;24.60;99.90
41168;DHT22;26906;45.658;9.272;2023-03-23T14:31:59;24.50;99.90
41168;DHT22;26906;45.658;9.272;2023-03-23T14:34:31;24.60;99.90
41168;DHT22;26906;45.658;9.272;2023-03-23T14:36:59;24.60;99.90
41168;DHT22;26906;45.658;9.272;2023-03-23T14:39:25;24.60;99.90
41168;DHT22;26906;45.658;9.272;2023-03-23T14:41:54;24.50;99.90
41168;DHT22;26906;45.658;9.272;2023-03-23T14:44:30;24.10;99.90
41168;DHT22;26906;45.658;9.272;2023-03-23T14:46:57;24.10;99.90
41168;DHT22;26906;45.658;9.272;2023-03-23T14:49:35;24.10;99.90
41168;DHT22;26906;45.658;9.272;2023-03-23T14:52:14;24.00;99.90
41168;DHT22;26906;45.658;9.272;2023-03-23T14:54:42;24.10;99.90
41168;DHT22;26906;45.658;9.272;2023-03-23T14:57:17;24.10;99.90
41168;DHT22;26906;45.658;9.272;2023-03-23T14:59:47;24.10;99.90
41168;DHT22;26906;45.658;9.272;2023-03-23T15:02:33;24.00;99.90
41168;DHT22;26906;45.658;9.272;2023-03-23T15:05:03;24.00;99.90
41168;DHT22;26906;45.658;9.272;2023-03-23T15:07:34;24.10;99.90
41168;DHT22;26906;45.658;9.272;2023-03-23T15:10:01;24.00;99.90
41168;DHT22;26906;45.658;9.272;2023-03-23T15:12:29;23.90;99.90
41168;DHT22;26906;45.658;9.272;2023-03-23T15:15:07;23.70;99.90
41168;DHT22;26906;45.658;9.272;2023-03-23T15:17:45;23.60;99.90
41168;DHT22;26906;45.658;9.272;2023-03-23T15:20:31;23.50;99.90
41168;DHT22;26906;45.658;9.272;2023-03-23T15:23:06;23.40;99.90
41168;DHT22;26906;45.658;9.272;2023-03-23T15:25:34;23.30;99.90
41168;DHT22;26906;45.658;9.272;2023-03-23T15:28:20;23.30;99.90
41168;DHT22;26906;45.658;9.272;2023-03-23T15:30:52;23.30;99.90
41168;DHT22;26906;45.658;9.272;2023-03-23T15:33:20;23.20;99.90
41168;DHT22;26906;45.658;9.272;2023-03-23T15:35:52;23.20;99.90
41168;DHT22;26906;45.658;9.272;2023-03-23T15:38:33;23.20;99.90
41168;DHT22;26906;45.658;9.272;2023-03-23T15:41:05;23.10;99.90
41168;DHT22;26906;45.658;9.272;2023-03-23T15:43:34;22.90;99.90
41168;DHT22;26906;45.658;9.272;2023-03-23T15:46:19;22.80;99.90
41168;DHT22;26906;45.658;9.272;2023-03-23T15:51:17;22.60;99.90
41168;DHT22;26906;45.658;9.272;2023-03-23T15:53:43;22.50;99.90
41168;DHT22;26906;45.658;9.272;2023-03-23T15:56:11;22.50;99.90
41168;DHT22;26906;45.658;9.272;2023-03-23T15:58:40;22.60;99.90
41168;DHT22;26906;45.658;9.272;2023-03-23T16:01:17;22.60;99.90
41168;DHT22;26906;45.658;9.272;2023-03-23T16:03:50;22.60;99.90
41168;DHT22;26906;45.658;9.272;2023-03-23T16:06:19;22.50;99.90
41168;DHT22;26906;45.658;9.272;2023-03-23T16:08:44;22.50;99.90
41168;DHT22;26906;45.658;9.272;2023-03-23T16:11:15;22.50;99.90
41168;DHT22;26906;45.658;9.272;2023-03-23T16:13:41;22.50;99.90
41168;DHT22;26906;45.658;9.272;2023-03-23T16:16:24;22.40;99.90
41168;DHT22;26906;45.658;9.272;2023-03-23T16:18:52;22.30;99.90
41168;DHT22;26906;45.658;9.272;2023-03-23T16:21:17;22.20;99.90
41168;DHT22;26906;45.658;9.272;2023-03-23T16:23:43;22.10;99.90
41168;DHT22;26906;45.658;9.272;2023-03-23T16:26:11;22.00;99.90
41168;DHT22;26906;45.658;9.272;2023-03-23T16:28:37;21.90;99.90
41168;DHT22;26906;45.658;9.272;2023-03-23T16:31:03;21.80;99.90
41168;DHT22;26906;45.658;9.272;2023-03-23T16:33:29;21.80;99.90
41168;DHT22;26906;45.658;9.272;2023-03-23T16:35:55;21.70;99.90
41168;DHT22;26906;45.658;9.272;2023-03-23T16:38:21;21.60;99.90
41168;DHT22;26906;45.658;9.272;2023-03-23T16:40:47;21.50;99.90
41168;DHT22;26906;45.658;9.272;2023-03-23T16:43:13;21.50;99.90
41168;DHT22;26906;45.658;9.272;2023-03-23T16:45:41;21.40;99.90
41168;DHT22;26906;45.658;9.272;2023-03-23T16:48:09;21.40;99.90
41168;DHT22;26906;45.658;9.272;2023-03-23T16:50:37;21.40;99.90
41168;DHT22;26906;45.658;9.272;2023-03-23T16:53:03;21.40;99.90
41168;DHT22;26906;45.658;9.272;2023-03-23T16:55:30;21.30;99.90
41168;DHT22;26906;45.658;9.272;2023-03-23T16:57:56;21.30;99.90
41168;DHT22;26906;45.658;9.272;2023-03-23T17:00:22;21.30;99.90
41168;DHT22;26906;45.658;9.272;2023-03-23T17:02:50;21.20;99.90
41168;DHT22;26906;45.658;9.272;2023-03-23T17:05:19;21.20;99.90
41168;DHT22;26906;45.658;9.272;2023-03-23T17:07:47;21.20;99.90
41168;DHT22;26906;45.658;9.272;2023-03-23T17:10:14;21.10;99.90
41168;DHT22;26906;45.658;9.272;2023-03-23T17:12:40;21.10;99.90
41168;DHT22;26906;45.658;9.272;2023-03-23T17:15:07;21.10;99.90
41168;DHT22;26906;45.658;9.272;2023-03-23T17:17:34;21.00;99.90
41168;DHT22;26906;45.658;9.272;2023-03-23T17:19:59;21.00;99.90
41168;DHT22;26906;45.658;9.272;2023-03-23T17:22:26;20.90;99.90
41168;DHT22;26906;45.658;9.272;2023-03-23T17:24:52;20.90;99.90
41168;DHT22;26906;45.658;9.272;2023-03-23T17:27:19;20.80;99.90
41168;DHT22;26906;45.658;9.272;2023-03-23T17:29:45;20.80;99.90
41168;DHT22;26906;45.658;9.272;2023-03-23T17:32:11;20.70;99.90
41168;DHT22;26906;45.658;9.272;2023-03-23T17:34:37;20.60;99.90
41168;DHT22;26906;45.658;9.272;2023-03-23T17:37:03;20.60;99.90
41168;DHT22;26906;45.658;9.272;2023-03-23T17:39:30;20.60;99.90
41168;DHT22;26906;45.658;9.272;2023-03-23T17:41:57;20.50;99.90
41168;DHT22;26906;45.658;9.272;2023-03-23T17:44:23;20.40;99.90
41168;DHT22;26906;45.658;9.272;2023-03-23T17:46:49;20.30;99.90
41168;DHT22;26906;45.658;9.272;2023-03-23T17:49:15;20.30;99.90
41168;DHT22;26906;45.658;9.272;2023-03-23T17:51:40;20.10;99.90
41168;DHT22;26906;45.658;9.272;2023-03-23T17:54:09;20.10;99.90
41168;DHT22;26906;45.658;9.272;2023-03-23T17:56:35;20.00;99.90
41168;DHT22;26906;45.658;9.272;2023-03-23T17:59:01;20.00;99.90
41168;DHT22;26906;45.658;9.272;2023-03-23T18:01:26;19.90;99.90
41168;DHT22;26906;45.658;9.272;2023-03-23T18:03:52;19.90;99.90
41168;DHT22;26906;45.658;9.272;2023-03-23T18:06:18;19.80;99.90
41168;DHT22;26906;45.658;9.272;2023-03-23T18:08:44;19.80;99.90
41168;DHT22;26906;45.658;9.272;2023-03-23T18:11:10;19.70;99.90
41168;DHT22;26906;45.658;9.272;2023-03-23T18:13:36;19.70;99.90
41168;DHT22;26906;45.658;9.272;2023-03-23T18:16:03;19.70;99.90
41168;DHT22;26906;45.658;9.272;2023-03-23T18:18:30;19.60;99.90
41168;DHT22;26906;45.658;9.272;2023-03-23T18:21:05;19.50;99.90
41168;DHT22;26906;45.658;9.272;2023-03-23T18:23:32;19.50;99.90
41168;DHT22;26906;45.658;9.272;2023-03-23T18:26:05;19.50;99.90
41168;DHT22;26906;45.658;9.272;2023-03-23T18:28:31;19.40;99.90
41168;DHT22;26906;45.658;9.272;2023-03-23T18:31:09;19.40;99.90
41168;DHT22;26906;45.658;9.272;2023-03-23T18:33:35;19.30;99.90
41168;DHT22;26906;45.658;9.272;2023-03-23T18:36:03;19.30;99.90
41168;DHT22;26906;45.658;9.272;2023-03-23T18:38:29;19.20;99.90
41168;DHT22;26906;45.658;9.272;2023-03-23T18:40:55;19.10;99.90
41168;DHT22;26906;45.658;9.272;2023-03-23T18:43:21;19.20;99.90
41168;DHT22;26906;45.658;9.272;2023-03-23T18:45:52;19.10;99.90
41168;DHT22;26906;45.658;9.272;2023-03-23T18:48:18;18.90;99.90
41168;DHT22;26906;45.658;9.272;2023-03-23T18:50:48;18.90;99.90
41168;DHT22;26906;45.658;9.272;2023-03-23T18:53:14;18.90;99.90
41168;DHT22;26906;45.658;9.272;2023-03-23T18:55:41;18.90;99.90
41168;DHT22;26906;45.658;9.272;2023-03-23T18:58:08;18.80;99.90
41168;DHT22;26906;45.658;9.272;2023-03-23T19:00:34;18.70;99.90
41168;DHT22;26906;45.658;9.272;2023-03-23T19:03:00;18.60;99.90
41168;DHT22;26906;45.658;9.272;2023-03-23T19:05:25;18.50;99.90
41168;DHT22;26906;45.658;9.272;2023-03-23T19:07:52;18.50;99.90
41168;DHT22;26906;45.658;9.272;2023-03-23T19:10:20;18.40;99.90
41168;DHT22;26906;45.658;9.272;2023-03-23T19:12:47;18.40;99.90
41168;DHT22;26906;45.658;9.272;2023-03-23T19:15:13;18.40;99.90
41168;DHT22;26906;45.658;9.272;2023-03-23T19:17:39;18.30;99.90
41168;DHT22;26906;45.658;9.272;2023-03-23T19:20:05;18.30;99.90
41168;DHT22;26906;45.658;9.272;2023-03-23T19:22:35;18.20;99.90
41168;DHT22;26906;45.658;9.272;2023-03-23T19:25:02;18.20;99.90
41168;DHT22;26906;45.658;9.272;2023-03-23T19:27:28;18.20;99.90
41168;DHT22;26906;45.658;9.272;2023-03-23T19:29:53;18.20;99.90
41168;DHT22;26906;45.658;9.272;2023-03-23T19:32:19;18.20;99.90
41168;DHT22;26906;45.658;9.272;2023-03-23T19:34:45;18.10;99.90
41168;DHT22;26906;45.658;9.272;2023-03-23T19:37:11;18.00;99.90
41168;DHT22;26906;45.658;9.272;2023-03-23T19:39:38;17.90;99.90
41168;DHT22;26906;45.658;9.272;2023-03-23T19:42:05;17.90;99.90
41168;DHT22;26906;45.658;9.272;2023-03-23T19:44:32;17.80;99.90
41168;DHT22;26906;45.658;9.272;2023-03-23T19:47:00;17.70;99.90
41168;DHT22;26906;45.658;9.272;2023-03-23T19:49:26;17.70;99.90
41168;DHT22;26906;45.658;9.272;2023-03-23T19:51:55;17.60;99.90
41168;DHT22;26906;45.658;9.272;2023-03-23T19:54:20;17.60;99.90
41168;DHT22;26906;45.658;9.272;2023-03-23T19:56:46;17.70;99.90
41168;DHT22;26906;45.658;9.272;2023-03-23T19:59:13;17.60;99.90
41168;DHT22;26906;45.658;9.272;2023-03-23T20:01:43;17.50;99.90
41168;DHT22;26906;45.658;9.272;2023-03-23T20:04:13;17.40;99.90
41168;DHT22;26906;45.658;9.272;2023-03-23T20:06:41;17.40;99.90
41168;DHT22;26906;45.658;9.272;2023-03-23T20:09:07;17.40;99.90
41168;DHT22;26906;45.658;9.272;2023-03-23T20:11:32;17.40;99.90
41168;DHT22;26906;45.658;9.272;2023-03-23T20:13:58;17.30;99.90
41168;DHT22;26906;45.658;9.272;2023-03-23T20:16:25;17.30;99.90
41168;DHT22;26906;45.658;9.272;2023-03-23T20:18:55;17.30;99.90
41168;DHT22;26906;45.658;9.272;2023-03-23T20:21:24;17.40;99.90
41168;DHT22;26906;45.658;9.272;2023-03-23T20:23:53;17.30;99.90
41168;DHT22;26906;45.658;9.272;2023-03-23T20:26:22;17.20;99.90
41168;DHT22;26906;45.658;9.272;2023-03-23T20:28:49;17.20;99.90
41168;DHT22;26906;45.658;9.272;2023-03-23T20:31:17;17.20;99.90
41168;DHT22;26906;45.658;9.272;2023-03-23T20:33:44;17.20;99.90
41168;DHT22;26906;45.658;9.272;2023-03-23T20:36:11;17.20;99.90
41168;DHT22;26906;45.658;9.272;2023-03-23T20:38:38;17.20;99.90
41168;DHT22;26906;45.658;9.272;2023-03-23T20:41:07;17.10;99.90
41168;DHT22;26906;45.658;9.272;2023-03-23T20:43:38;17.10;99.90
41168;DHT22;26906;45.658;9.272;2023-03-23T20:46:05;17.00;99.90
41168;DHT22;26906;45.658;9.272;2023-03-23T20:48:33;17.00;99.90
41168;DHT22;26906;45.658;9.272;2023-03-23T20:51:00;16.90;99.90
41168;DHT22;26906;45.658;9.272;2023-03-23T20:53:29;16.80;99.90
41168;DHT22;26906;45.658;9.272;2023-03-23T20:55:57;16.70;99.90
41168;DHT22;26906;45.658;9.272;2023-03-23T20:58:27;16.70;99.90
41168;DHT22;26906;45.658;9.272;2023-03-23T21:00:53;16.70;99.90
41168;DHT22;26906;45.658;9.272;2023-03-23T21:03:23;16.70;99.90
41168;DHT22;26906;45.658;9.272;2023-03-23T21:05:48;16.60;99.90
41168;DHT22;26906;45.658;9.272;2023-03-23T21:08:14;16.60;99.90
41168;DHT22;26906;45.658;9.272;2023-03-23T21:10:43;16.70;99.90
41168;DHT22;26906;45.658;9.272;2023-03-23T21:13:09;16.70;99.90
41168;DHT22;26906;45.658;9.272;2023-03-23T21:15:35;16.70;99.90
41168;DHT22;26906;45.658;9.272;2023-03-23T21:18:01;16.70;99.90
41168;DHT22;26906;45.658;9.272;2023-03-23T21:20:27;16.60;99.90
41168;DHT22;26906;45.658;9.272;2023-03-23T21:22:53;16.50;99.90
41168;DHT22;26906;45.658;9.272;2023-03-23T21:25:18;16.50;99.90
41168;DHT22;26906;45.658;9.272;2023-03-23T21:27:47;16.50;99.90
41168;DHT22;26906;45.658;9.272;2023-03-23T21:30:13;16.40;99.90
41168;DHT22;26906;45.658;9.272;2023-03-23T21:32:39;16.50;99.90
41168;DHT22;26906;45.658;9.272;2023-03-23T21:35:05;16.30;99.90
41168;DHT22;26906;45.658;9.272;2023-03-23T21:37:31;16.30;99.90
41168;DHT22;26906;45.658;9.272;2023-03-23T21:39:57;16.30;99.90
